sensor_id;sensor_type;location;lat;lon;timestamp;pressure;altitude;pressure_sealevel;temperature
12918;BMP180;6526;54.312;13.092;2023-03-14T00:02:00;99140.00;;;14.10
12918;BMP180;6526;54.312;13.092;2023-03-14T00:04:26;99128.00;;;14.10
12918;BMP180;6526;54.312;13.092;2023-03-14T00:06:52;99133.00;;;14.10
12918;BMP180;6526;54.312;13.092;2023-03-14T00:09:18;99122.00;;;14.10
12918;BMP180;6526;54.312;13.092;2023-03-14T00:11:44;99123.00;;;14.10
12918;BMP180;6526;54.312;13.092;2023-03-14T00:14:11;99128.00;;;14.10
12918;BMP180;6526;54.312;13.092;2023-03-14T00:16:37;99130.00;;;14.00
12918;BMP180;6526;54.312;13.092;2023-03-14T00:19:03;99117.00;;;14.00
12918;BMP180;6526;54.312;13.092;2023-03-14T00:21:29;99124.00;;;14.00
12918;BMP180;6526;54.312;13.092;2023-03-14T00:23:55;99133.00;;;14.00
12918;BMP180;6526;54.312;13.092;2023-03-14T00:26:22;99136.00;;;14.00
12918;BMP180;6526;54.312;13.092;2023-03-14T00:28:51;99130.00;;;14.00
12918;BMP180;6526;54.312;13.092;2023-03-14T00:31:18;99137.00;;;13.90
12918;BMP180;6526;54.312;13.092;2023-03-14T00:33:45;99134.00;;;14.10
12918;BMP180;6526;54.312;13.092;2023-03-14T00:36:14;99132.00;;;14.00
12918;BMP180;6526;54.312;13.092;2023-03-14T00:38:41;99123.00;;;13.90
12918;BMP180;6526;54.312;13.092;2023-03-14T00:41:11;99124.00;;;13.90
12918;BMP180;6526;54.312;13.092;2023-03-14T00:43:37;99122.00;;;13.90
12918;BMP180;6526;54.312;13.092;2023-03-14T00:46:04;99115.00;;;13.90
12918;BMP180;6526;54.312;13.092;2023-03-14T00:48:30;99117.00;;;13.90
12918;BMP180;6526;54.312;13.092;2023-03-14T00:50:56;99125.00;;;13.90
12918;BMP180;6526;54.312;13.092;2023-03-14T00:53:22;99133.00;;;13.90
12918;BMP180;6526;54.312;13.092;2023-03-14T00:55:49;99137.00;;;13.80
12918;BMP180;6526;54.312;13.092;2023-03-14T00:58:17;99132.00;;;13.80
12918;BMP180;6526;54.312;13.092;2023-03-14T01:00:44;99123.00;;;13.80
12918;BMP180;6526;54.312;13.092;2023-03-14T01:03:11;99139.00;;;13.80
12918;BMP180;6526;54.312;13.092;2023-03-14T01:05:38;99126.00;;;13.80
12918;BMP180;6526;54.312;13.092;2023-03-14T01:08:05;99115.00;;;13.90
12918;BMP180;6526;54.312;13.092;2023-03-14T01:10:33;99122.00;;;13.80
12918;BMP180;6526;54.312;13.092;2023-03-14T01:12:59;99132.00;;;13.70
12918;BMP180;6526;54.312;13.092;2023-03-14T01:15:25;99137.00;;;13.70
12918;BMP180;6526;54.312;13.092;2023-03-14T01:17:51;99134.00;;;13.70
12918;BMP180;6526;54.312;13.092;2023-03-14T01:20:18;99136.00;;;13.60
12918;BMP180;6526;54.312;13.092;2023-03-14T01:22:45;99131.00;;;13.60
12918;BMP180;6526;54.312;13.092;2023-03-14T01:25:14;99125.00;;;13.60
12918;BMP180;6526;54.312;13.092;2023-03-14T01:27:40;99121.00;;;13.60
12918;BMP180;6526;54.312;13.092;2023-03-14T01:30:07;99115.00;;;13.60
12918;BMP180;6526;54.312;13.092;2023-03-14T01:32:34;99100.00;;;13.60
12918;BMP180;6526;54.312;13.092;2023-03-14T01:35:00;99080.00;;;13.50
12918;BMP180;6526;54.312;13.092;2023-03-14T01:37:26;99095.00;;;13.50
12918;BMP180;6526;54.312;13.092;2023-03-14T01:39:52;99094.00;;;13.50
12918;BMP180;6526;54.312;13.092;2023-03-14T01:42:18;99075.00;;;13.60
12918;BMP180;6526;54.312;13.092;2023-03-14T01:45:01;99075.00;;;13.70
12918;BMP180;6526;54.312;13.092;2023-03-14T01:47:27;99083.00;;;13.80
12918;BMP180;6526;54.312;13.092;2023-03-14T01:50:01;99080.00;;;13.90
12918;BMP180;6526;54.312;13.092;2023-03-14T01:55:28;99094.00;;;13.90
12918;BMP180;6526;54.312;13.092;2023-03-14T01:58:00;99092.00;;;13.90
12918;BMP180;6526;54.312;13.092;2023-03-14T02:00:26;99108.00;;;13.90
12918;BMP180;6526;54.312;13.092;2023-03-14T02:03:00;99117.00;;;13.90
12918;BMP180;6526;54.312;13.092;2023-03-14T02:05:30;99118.00;;;13.90
12918;BMP180;6526;54.312;13.092;2023-03-14T02:07:59;99128.00;;;13.90
12918;BMP180;6526;54.312;13.092;2023-03-14T02:10:28;99130.00;;;13.90
12918;BMP180;6526;54.312;13.092;2023-03-14T02:12:57;99141.00;;;14.00
12918;BMP180;6526;54.312;13.092;2023-03-14T02:15:25;99142.00;;;14.00
12918;BMP180;6526;54.312;13.092;2023-03-14T02:17:52;99140.00;;;14.00
12918;BMP180;6526;54.312;13.092;2023-03-14T02:20:33;99126.00;;;14.00
12918;BMP180;6526;54.312;13.092;2023-03-14T02:23:00;99125.00;;;14.00
12918;BMP180;6526;54.312;13.092;2023-03-14T02:25:43;99134.00;;;13.90
12918;BMP180;6526;54.312;13.092;2023-03-14T02:28:12;99135.00;;;13.90
12918;BMP180;6526;54.312;13.092;2023-03-14T02:30:38;99139.00;;;13.90
12918;BMP180;6526;54.312;13.092;2023-03-14T02:33:08;99132.00;;;14.00
12918;BMP180;6526;54.312;13.092;2023-03-14T02:35:41;99099.00;;;13.90
12918;BMP180;6526;54.312;13.092;2023-03-14T02:38:29;99102.00;;;13.80
12918;BMP180;6526;54.312;13.092;2023-03-14T02:40:57;99111.00;;;13.80
12918;BMP180;6526;54.312;13.092;2023-03-14T02:43:23;99082.00;;;13.70
12918;BMP180;6526;54.312;13.092;2023-03-14T02:45:51;99089.00;;;13.80
12918;BMP180;6526;54.312;13.092;2023-03-14T02:48:33;99080.00;;;13.80
12918;BMP180;6526;54.312;13.092;2023-03-14T02:51:01;99077.00;;;13.90
12918;BMP180;6526;54.312;13.092;2023-03-14T02:53:33;99083.00;;;13.90
12918;BMP180;6526;54.312;13.092;2023-03-14T02:56:00;99084.00;;;13.80
12918;BMP180;6526;54.312;13.092;2023-03-14T02:58:26;99075.00;;;13.80
12918;BMP180;6526;54.312;13.092;2023-03-14T03:00:53;99073.00;;;13.90
12918;BMP180;6526;54.312;13.092;2023-03-14T03:03:19;99065.00;;;13.90
12918;BMP180;6526;54.312;13.092;2023-03-14T03:05:53;99053.00;;;14.00
12918;BMP180;6526;54.312;13.092;2023-03-14T03:08:21;99056.00;;;13.90
12918;BMP180;6526;54.312;13.092;2023-03-14T03:10:48;99043.00;;;14.00
12918;BMP180;6526;54.312;13.092;2023-03-14T03:13:14;99040.00;;;13.90
12918;BMP180;6526;54.312;13.092;2023-03-14T03:15:41;99024.00;;;13.80
12918;BMP180;6526;54.312;13.092;2023-03-14T03:18:07;98989.00;;;13.90
12918;BMP180;6526;54.312;13.092;2023-03-14T03:20:33;99018.00;;;13.70
12918;BMP180;6526;54.312;13.092;2023-03-14T03:23:00;99025.00;;;13.60
12918;BMP180;6526;54.312;13.092;2023-03-14T03:25:26;99032.00;;;13.60
12918;BMP180;6526;54.312;13.092;2023-03-14T03:27:53;99041.00;;;13.70
12918;BMP180;6526;54.312;13.092;2023-03-14T03:30:19;99050.00;;;13.60
12918;BMP180;6526;54.312;13.092;2023-03-14T03:32:46;99049.00;;;13.60
12918;BMP180;6526;54.312;13.092;2023-03-14T03:35:12;99049.00;;;13.70
12918;BMP180;6526;54.312;13.092;2023-03-14T03:37:39;99047.00;;;13.60
12918;BMP180;6526;54.312;13.092;2023-03-14T03:40:06;99041.00;;;13.70
12918;BMP180;6526;54.312;13.092;2023-03-14T03:42:33;99039.00;;;13.80
12918;BMP180;6526;54.312;13.092;2023-03-14T03:45:00;99036.00;;;13.90
12918;BMP180;6526;54.312;13.092;2023-03-14T03:47:27;99037.00;;;13.90
12918;BMP180;6526;54.312;13.092;2023-03-14T03:49:53;99047.00;;;13.90
12918;BMP180;6526;54.312;13.092;2023-03-14T03:52:19;99030.00;;;13.80
12918;BMP180;6526;54.312;13.092;2023-03-14T03:54:46;99028.00;;;13.80
12918;BMP180;6526;54.312;13.092;2023-03-14T03:57:13;99028.00;;;13.70
12918;BMP180;6526;54.312;13.092;2023-03-14T03:59:39;99023.00;;;13.80
12918;BMP180;6526;54.312;13.092;2023-03-14T04:02:07;99031.00;;;13.80
12918;BMP180;6526;54.312;13.092;2023-03-14T04:04:33;99031.00;;;13.80
12918;BMP180;6526;54.312;13.092;2023-03-14T04:06:59;99039.00;;;13.80
12918;BMP180;6526;54.312;13.092;2023-03-14T04:09:25;99028.00;;;13.80
12918;BMP180;6526;54.312;13.092;2023-03-14T04:11:51;99035.00;;;13.80
12918;BMP180;6526;54.312;13.092;2023-03-14T04:14:17;99040.00;;;13.70
12918;BMP180;6526;54.312;13.092;2023-03-14T04:16:44;99038.00;;;13.80
12918;BMP180;6526;54.312;13.092;2023-03-14T04:19:10;99040.00;;;13.80
12918;BMP180;6526;54.312;13.092;2023-03-14T04:21:36;99036.00;;;13.70
12918;BMP180;6526;54.312;13.092;2023-03-14T04:24:02;99026.00;;;13.80
12918;BMP180;6526;54.312;13.092;2023-03-14T04:26:28;99019.00;;;13.80
12918;BMP180;6526;54.312;13.092;2023-03-14T04:28:55;99027.00;;;13.60
12918;BMP180;6526;54.312;13.092;2023-03-14T04:31:21;99019.00;;;13.70
12918;BMP180;6526;54.312;13.092;2023-03-14T04:33:48;99018.00;;;13.70
12918;BMP180;6526;54.312;13.092;2023-03-14T04:36:14;99016.00;;;13.70
12918;BMP180;6526;54.312;13.092;2023-03-14T04:38:40;99005.00;;;13.70
12918;BMP180;6526;54.312;13.092;2023-03-14T04:41:07;99008.00;;;13.70
12918;BMP180;6526;54.312;13.092;2023-03-14T04:43:33;99005.00;;;13.70
12918;BMP180;6526;54.312;13.092;2023-03-14T04:46:00;99005.00;;;13.80
12918;BMP180;6526;54.312;13.092;2023-03-14T04:48:27;98995.00;;;13.80
12918;BMP180;6526;54.312;13.092;2023-03-14T04:50:53;98993.00;;;13.70
12918;BMP180;6526;54.312;13.092;2023-03-14T04:53:19;98979.00;;;13.70
12918;BMP180;6526;54.312;13.092;2023-03-14T04:55:54;98973.00;;;13.70
12918;BMP180;6526;54.312;13.092;2023-03-14T04:58:22;98976.00;;;13.60
12918;BMP180;6526;54.312;13.092;2023-03-14T05:00:48;98952.00;;;13.70
12918;BMP180;6526;54.312;13.092;2023-03-14T05:03:16;98949.00;;;13.60
12918;BMP180;6526;54.312;13.092;2023-03-14T05:05:43;98948.00;;;13.60
12918;BMP180;6526;54.312;13.092;2023-03-14T05:08:09;98948.00;;;13.50
12918;BMP180;6526;54.312;13.092;2023-03-14T05:10:36;98936.00;;;13.50
12918;BMP180;6526;54.312;13.092;2023-03-14T05:13:02;98926.00;;;13.40
12918;BMP180;6526;54.312;13.092;2023-03-14T05:15:28;98943.00;;;13.40
12918;BMP180;6526;54.312;13.092;2023-03-14T05:17:54;98932.00;;;13.50
12918;BMP180;6526;54.312;13.092;2023-03-14T05:20:21;98929.00;;;13.50
12918;BMP180;6526;54.312;13.092;2023-03-14T05:22:47;98923.00;;;13.50
12918;BMP180;6526;54.312;13.092;2023-03-14T05:25:13;98917.00;;;13.40
12918;BMP180;6526;54.312;13.092;2023-03-14T05:27:39;98920.00;;;13.40
12918;BMP180;6526;54.312;13.092;2023-03-14T05:30:06;98924.00;;;13.40
12918;BMP180;6526;54.312;13.092;2023-03-14T05:32:32;98929.00;;;13.50
12918;BMP180;6526;54.312;13.092;2023-03-14T05:34:59;98928.00;;;13.40
12918;BMP180;6526;54.312;13.092;2023-03-14T05:37:26;98933.00;;;13.40
12918;BMP180;6526;54.312;13.092;2023-03-14T05:39:52;98932.00;;;13.40
12918;BMP180;6526;54.312;13.092;2023-03-14T05:42:19;98937.00;;;13.40
12918;BMP180;6526;54.312;13.092;2023-03-14T05:44:45;98938.00;;;13.50
12918;BMP180;6526;54.312;13.092;2023-03-14T05:47:11;98936.00;;;13.50
12918;BMP180;6526;54.312;13.092;2023-03-14T05:49:37;98938.00;;;13.50
12918;BMP180;6526;54.312;13.092;2023-03-14T05:52:04;98934.00;;;13.40
12918;BMP180;6526;54.312;13.092;2023-03-14T05:54:30;98940.00;;;13.40
12918;BMP180;6526;54.312;13.092;2023-03-14T05:56:56;98935.00;;;13.30
12918;BMP180;6526;54.312;13.092;2023-03-14T05:59:22;98937.00;;;13.30
12918;BMP180;6526;54.312;13.092;2023-03-14T06:01:48;98939.00;;;13.30
12918;BMP180;6526;54.312;13.092;2023-03-14T06:04:14;98936.00;;;13.30
12918;BMP180;6526;54.312;13.092;2023-03-14T06:06:40;98943.00;;;13.30
12918;BMP180;6526;54.312;13.092;2023-03-14T06:09:06;98940.00;;;13.30
12918;BMP180;6526;54.312;13.092;2023-03-14T06:11:32;98924.00;;;13.20
12918;BMP180;6526;54.312;13.092;2023-03-14T06:13:58;98928.00;;;13.20
12918;BMP180;6526;54.312;13.092;2023-03-14T06:16:24;98922.00;;;13.20
12918;BMP180;6526;54.312;13.092;2023-03-14T06:18:50;98927.00;;;13.20
12918;BMP180;6526;54.312;13.092;2023-03-14T06:21:18;98921.00;;;13.20
12918;BMP180;6526;54.312;13.092;2023-03-14T06:23:45;98922.00;;;13.20
12918;BMP180;6526;54.312;13.092;2023-03-14T06:26:11;98930.00;;;13.10
12918;BMP180;6526;54.312;13.092;2023-03-14T06:28:38;98919.00;;;13.10
12918;BMP180;6526;54.312;13.092;2023-03-14T06:31:05;98924.00;;;13.10
12918;BMP180;6526;54.312;13.092;2023-03-14T06:33:31;98920.00;;;13.10
12918;BMP180;6526;54.312;13.092;2023-03-14T06:35:57;98888.00;;;13.00
12918;BMP180;6526;54.312;13.092;2023-03-14T06:38:23;98936.00;;;13.20
12918;BMP180;6526;54.312;13.092;2023-03-14T06:40:49;98921.00;;;13.10
12918;BMP180;6526;54.312;13.092;2023-03-14T06:43:15;98932.00;;;13.10
12918;BMP180;6526;54.312;13.092;2023-03-14T06:45:41;98924.00;;;13.10
12918;BMP180;6526;54.312;13.092;2023-03-14T06:48:08;98926.00;;;13.20
12918;BMP180;6526;54.312;13.092;2023-03-14T06:50:34;98931.00;;;13.20
12918;BMP180;6526;54.312;13.092;2023-03-14T06:53:00;98928.00;;;13.20
12918;BMP180;6526;54.312;13.092;2023-03-14T06:55:26;98929.00;;;13.20
12918;BMP180;6526;54.312;13.092;2023-03-14T06:57:52;98921.00;;;13.20
12918;BMP180;6526;54.312;13.092;2023-03-14T07:00:18;98928.00;;;13.30
12918;BMP180;6526;54.312;13.092;2023-03-14T07:02:44;98907.00;;;13.30
12918;BMP180;6526;54.312;13.092;2023-03-14T07:05:10;98928.00;;;13.30
12918;BMP180;6526;54.312;13.092;2023-03-14T07:07:36;98909.00;;;13.40
12918;BMP180;6526;54.312;13.092;2023-03-14T07:10:03;98915.00;;;13.60
12918;BMP180;6526;54.312;13.092;2023-03-14T07:12:29;98903.00;;;13.80
12918;BMP180;6526;54.312;13.092;2023-03-14T07:14:55;98910.00;;;13.90
12918;BMP180;6526;54.312;13.092;2023-03-14T07:17:21;98910.00;;;14.20
12918;BMP180;6526;54.312;13.092;2023-03-14T07:19:47;98911.00;;;14.30
12918;BMP180;6526;54.312;13.092;2023-03-14T07:22:13;98907.00;;;14.50
12918;BMP180;6526;54.312;13.092;2023-03-14T07:24:39;98918.00;;;14.50
12918;BMP180;6526;54.312;13.092;2023-03-14T07:27:05;98903.00;;;14.70
12918;BMP180;6526;54.312;13.092;2023-03-14T07:29:32;98897.00;;;14.80
12918;BMP180;6526;54.312;13.092;2023-03-14T07:31:58;98918.00;;;15.00
12918;BMP180;6526;54.312;13.092;2023-03-14T07:34:24;98914.00;;;15.00
12918;BMP180;6526;54.312;13.092;2023-03-14T07:36:50;98928.00;;;15.00
12918;BMP180;6526;54.312;13.092;2023-03-14T07:39:16;98921.00;;;15.20
12918;BMP180;6526;54.312;13.092;2023-03-14T07:41:42;98921.00;;;15.30
12918;BMP180;6526;54.312;13.092;2023-03-14T07:44:08;98930.00;;;15.30
12918;BMP180;6526;54.312;13.092;2023-03-14T07:46:34;98924.00;;;15.20
12918;BMP180;6526;54.312;13.092;2023-03-14T07:49:01;98928.00;;;15.00
12918;BMP180;6526;54.312;13.092;2023-03-14T07:51:27;98932.00;;;15.00
12918;BMP180;6526;54.312;13.092;2023-03-14T07:53:53;98926.00;;;14.90
12918;BMP180;6526;54.312;13.092;2023-03-14T07:56:19;98923.00;;;14.80
12918;BMP180;6526;54.312;13.092;2023-03-14T07:58:45;98922.00;;;14.80
12918;BMP180;6526;54.312;13.092;2023-03-14T08:01:11;98924.00;;;14.80
12918;BMP180;6526;54.312;13.092;2023-03-14T08:03:37;98916.00;;;14.80
12918;BMP180;6526;54.312;13.092;2023-03-14T08:06:04;98927.00;;;14.90
12918;BMP180;6526;54.312;13.092;2023-03-14T08:08:30;98919.00;;;14.80
12918;BMP180;6526;54.312;13.092;2023-03-14T08:10:56;98922.00;;;14.70
12918;BMP180;6526;54.312;13.092;2023-03-14T08:13:22;98921.00;;;14.70
12918;BMP180;6526;54.312;13.092;2023-03-14T08:15:49;98933.00;;;14.60
12918;BMP180;6526;54.312;13.092;2023-03-14T08:18:16;98942.00;;;14.50
12918;BMP180;6526;54.312;13.092;2023-03-14T08:20:42;98926.00;;;14.50
12918;BMP180;6526;54.312;13.092;2023-03-14T08:23:08;98927.00;;;14.50
12918;BMP180;6526;54.312;13.092;2023-03-14T08:25:35;98919.00;;;14.40
12918;BMP180;6526;54.312;13.092;2023-03-14T08:28:01;98918.00;;;14.70
12918;BMP180;6526;54.312;13.092;2023-03-14T08:30:27;98920.00;;;15.00
12918;BMP180;6526;54.312;13.092;2023-03-14T08:32:53;98934.00;;;15.20
12918;BMP180;6526;54.312;13.092;2023-03-14T08:35:19;98933.00;;;15.40
12918;BMP180;6526;54.312;13.092;2023-03-14T08:37:45;98923.00;;;15.30
12918;BMP180;6526;54.312;13.092;2023-03-14T08:40:12;98925.00;;;15.30
12918;BMP180;6526;54.312;13.092;2023-03-14T08:42:39;98921.00;;;15.30
12918;BMP180;6526;54.312;13.092;2023-03-14T08:45:06;98926.00;;;15.50
12918;BMP180;6526;54.312;13.092;2023-03-14T08:47:33;98931.00;;;15.50
12918;BMP180;6526;54.312;13.092;2023-03-14T08:49:59;98936.00;;;15.50
12918;BMP180;6526;54.312;13.092;2023-03-14T08:52:25;98924.00;;;15.50
12918;BMP180;6526;54.312;13.092;2023-03-14T08:54:51;98929.00;;;15.50
12918;BMP180;6526;54.312;13.092;2023-03-14T08:57:17;98917.00;;;15.40
12918;BMP180;6526;54.312;13.092;2023-03-14T08:59:43;98927.00;;;15.50
12918;BMP180;6526;54.312;13.092;2023-03-14T09:02:11;98917.00;;;15.60
12918;BMP180;6526;54.312;13.092;2023-03-14T09:04:37;98919.00;;;15.80
12918;BMP180;6526;54.312;13.092;2023-03-14T09:07:03;98925.00;;;15.80
12918;BMP180;6526;54.312;13.092;2023-03-14T09:09:30;98930.00;;;15.80
12918;BMP180;6526;54.312;13.092;2023-03-14T09:11:56;98926.00;;;15.80
12918;BMP180;6526;54.312;13.092;2023-03-14T09:14:23;98933.00;;;15.80
12918;BMP180;6526;54.312;13.092;2023-03-14T09:16:49;98935.00;;;15.80
12918;BMP180;6526;54.312;13.092;2023-03-14T09:19:16;98935.00;;;15.60
12918;BMP180;6526;54.312;13.092;2023-03-14T09:21:42;98931.00;;;15.50
12918;BMP180;6526;54.312;13.092;2023-03-14T09:24:08;98941.00;;;15.40
12918;BMP180;6526;54.312;13.092;2023-03-14T09:26:34;98938.00;;;15.30
12918;BMP180;6526;54.312;13.092;2023-03-14T09:29:01;98947.00;;;15.30
12918;BMP180;6526;54.312;13.092;2023-03-14T09:31:27;98948.00;;;15.20
12918;BMP180;6526;54.312;13.092;2023-03-14T09:33:54;98937.00;;;15.20
12918;BMP180;6526;54.312;13.092;2023-03-14T09:36:20;98941.00;;;15.30
12918;BMP180;6526;54.312;13.092;2023-03-14T09:38:46;98947.00;;;15.30
12918;BMP180;6526;54.312;13.092;2023-03-14T09:41:26;98935.00;;;15.40
12918;BMP180;6526;54.312;13.092;2023-03-14T09:44:08;98951.00;;;15.30
12918;BMP180;6526;54.312;13.092;2023-03-14T09:46:38;98945.00;;;15.50
12918;BMP180;6526;54.312;13.092;2023-03-14T09:49:33;98940.00;;;15.70
12918;BMP180;6526;54.312;13.092;2023-03-14T09:52:02;98956.00;;;15.80
12918;BMP180;6526;54.312;13.092;2023-03-14T09:54:39;98952.00;;;15.90
12918;BMP180;6526;54.312;13.092;2023-03-14T09:57:13;98936.00;;;16.10
12918;BMP180;6526;54.312;13.092;2023-03-14T09:59:40;98956.00;;;16.40
12918;BMP180;6526;54.312;13.092;2023-03-14T10:02:25;98950.00;;;16.60
12918;BMP180;6526;54.312;13.092;2023-03-14T10:04:53;98943.00;;;16.60
12918;BMP180;6526;54.312;13.092;2023-03-14T10:07:29;98944.00;;;16.50
12918;BMP180;6526;54.312;13.092;2023-03-14T10:09:56;98945.00;;;16.40
12918;BMP180;6526;54.312;13.092;2023-03-14T10:12:36;98961.00;;;16.20
12918;BMP180;6526;54.312;13.092;2023-03-14T10:15:12;98965.00;;;16.00
12918;BMP180;6526;54.312;13.092;2023-03-14T10:17:43;98969.00;;;15.90
12918;BMP180;6526;54.312;13.092;2023-03-14T10:20:37;98956.00;;;15.80
12918;BMP180;6526;54.312;13.092;2023-03-14T10:23:18;98963.00;;;15.80
12918;BMP180;6526;54.312;13.092;2023-03-14T10:25:46;98955.00;;;15.80
12918;BMP180;6526;54.312;13.092;2023-03-14T10:28:28;98973.00;;;15.70
12918;BMP180;6526;54.312;13.092;2023-03-14T10:30:55;98961.00;;;15.80
12918;BMP180;6526;54.312;13.092;2023-03-14T10:33:26;98968.00;;;15.70
12918;BMP180;6526;54.312;13.092;2023-03-14T10:38:42;98970.00;;;15.70
12918;BMP180;6526;54.312;13.092;2023-03-14T10:41:18;98972.00;;;15.80
12918;BMP180;6526;54.312;13.092;2023-03-14T10:43:45;98976.00;;;15.80
12918;BMP180;6526;54.312;13.092;2023-03-14T10:46:18;98987.00;;;15.80
12918;BMP180;6526;54.312;13.092;2023-03-14T10:48:44;98984.00;;;15.60
12918;BMP180;6526;54.312;13.092;2023-03-14T10:53:55;98957.00;;;15.40
12918;BMP180;6526;54.312;13.092;2023-03-14T10:56:23;98975.00;;;15.40
12918;BMP180;6526;54.312;13.092;2023-03-14T10:58:51;98984.00;;;15.40
12918;BMP180;6526;54.312;13.092;2023-03-14T11:06:55;98978.00;;;15.10
12918;BMP180;6526;54.312;13.092;2023-03-14T11:20:59;98979.00;;;15.50
12918;BMP180;6526;54.312;13.092;2023-03-14T11:23:46;98975.00;;;15.40
12918;BMP180;6526;54.312;13.092;2023-03-14T11:26:42;98977.00;;;15.30
12918;BMP180;6526;54.312;13.092;2023-03-14T11:31:54;98974.00;;;15.20
12918;BMP180;6526;54.312;13.092;2023-03-14T11:34:42;98982.00;;;15.30
12918;BMP180;6526;54.312;13.092;2023-03-14T11:37:25;98978.00;;;15.40
12918;BMP180;6526;54.312;13.092;2023-03-14T11:42:44;98992.00;;;15.40
12918;BMP180;6526;54.312;13.092;2023-03-14T11:45:17;98977.00;;;15.40
12918;BMP180;6526;54.312;13.092;2023-03-14T11:47:48;98987.00;;;15.40
12918;BMP180;6526;54.312;13.092;2023-03-14T11:50:23;98974.00;;;15.40
12918;BMP180;6526;54.312;13.092;2023-03-14T11:53:14;98982.00;;;15.30
12918;BMP180;6526;54.312;13.092;2023-03-14T11:55:43;98978.00;;;15.30
12918;BMP180;6526;54.312;13.092;2023-03-14T11:58:26;98994.00;;;15.10
12918;BMP180;6526;54.312;13.092;2023-03-14T12:00:55;99000.00;;;15.10
12918;BMP180;6526;54.312;13.092;2023-03-14T12:03:56;99011.00;;;15.00
12918;BMP180;6526;54.312;13.092;2023-03-14T12:06:46;99008.00;;;14.80
12918;BMP180;6526;54.312;13.092;2023-03-14T12:09:13;99004.00;;;14.70
12918;BMP180;6526;54.312;13.092;2023-03-14T12:11:52;99002.00;;;14.50
12918;BMP180;6526;54.312;13.092;2023-03-14T12:16:58;99035.00;;;14.40
12918;BMP180;6526;54.312;13.092;2023-03-14T12:19:28;99079.00;;;14.50
12918;BMP180;6526;54.312;13.092;2023-03-14T12:24:50;99117.00;;;12.90
12918;BMP180;6526;54.312;13.092;2023-03-14T12:30:38;99143.00;;;11.30
12918;BMP180;6526;54.312;13.092;2023-03-14T12:38:23;99153.00;;;10.20
12918;BMP180;6526;54.312;13.092;2023-03-14T12:41:12;99175.00;;;9.90
12918;BMP180;6526;54.312;13.092;2023-03-14T12:43:40;99200.00;;;9.80
12918;BMP180;6526;54.312;13.092;2023-03-14T12:46:22;99217.00;;;9.40
12918;BMP180;6526;54.312;13.092;2023-03-14T12:54:27;99240.00;;;9.10
12918;BMP180;6526;54.312;13.092;2023-03-14T12:57:06;99241.00;;;8.90
12918;BMP180;6526;54.312;13.092;2023-03-14T12:59:58;99243.00;;;8.80
12918;BMP180;6526;54.312;13.092;2023-03-14T13:02:28;99256.00;;;8.70
12918;BMP180;6526;54.312;13.092;2023-03-14T13:10:48;99278.00;;;8.40
12918;BMP180;6526;54.312;13.092;2023-03-14T13:13:23;99287.00;;;8.40
12918;BMP180;6526;54.312;13.092;2023-03-14T13:16:00;99300.00;;;8.30
12918;BMP180;6526;54.312;13.092;2023-03-14T13:18:36;99304.00;;;8.30
12918;BMP180;6526;54.312;13.092;2023-03-14T13:21:13;99333.00;;;8.10
12918;BMP180;6526;54.312;13.092;2023-03-14T13:23:40;99344.00;;;8.10
12918;BMP180;6526;54.312;13.092;2023-03-14T13:26:13;99353.00;;;8.20
12918;BMP180;6526;54.312;13.092;2023-03-14T13:28:41;99354.00;;;8.00
12918;BMP180;6526;54.312;13.092;2023-03-14T13:31:21;99360.00;;;7.80
12918;BMP180;6526;54.312;13.092;2023-03-14T13:33:57;99364.00;;;7.50
12918;BMP180;6526;54.312;13.092;2023-03-14T13:36:23;99372.00;;;7.30
12918;BMP180;6526;54.312;13.092;2023-03-14T13:38:57;99378.00;;;7.20
12918;BMP180;6526;54.312;13.092;2023-03-14T13:41:24;99386.00;;;7.20
12918;BMP180;6526;54.312;13.092;2023-03-14T13:43:51;99399.00;;;7.00
12918;BMP180;6526;54.312;13.092;2023-03-14T13:46:21;99395.00;;;6.90
12918;BMP180;6526;54.312;13.092;2023-03-14T13:48:50;99404.00;;;6.90
12918;BMP180;6526;54.312;13.092;2023-03-14T13:51:21;99408.00;;;6.80
12918;BMP180;6526;54.312;13.092;2023-03-14T13:56:15;99423.00;;;6.80
12918;BMP180;6526;54.312;13.092;2023-03-14T13:58:42;99425.00;;;6.70
12918;BMP180;6526;54.312;13.092;2023-03-14T14:01:18;99439.00;;;6.70
12918;BMP180;6526;54.312;13.092;2023-03-14T14:03:47;99439.00;;;6.70
12918;BMP180;6526;54.312;13.092;2023-03-14T14:07:07;99449.00;;;6.70
12918;BMP180;6526;54.312;13.092;2023-03-14T14:09:38;99448.00;;;6.80
12918;BMP180;6526;54.312;13.092;2023-03-14T14:14:54;99450.00;;;6.80
12918;BMP180;6526;54.312;13.092;2023-03-14T14:17:36;99458.00;;;6.80
12918;BMP180;6526;54.312;13.092;2023-03-14T14:20:07;99472.00;;;7.00
12918;BMP180;6526;54.312;13.092;2023-03-14T14:22:34;99485.00;;;7.00
12918;BMP180;6526;54.312;13.092;2023-03-14T14:25:01;99470.00;;;7.10
12918;BMP180;6526;54.312;13.092;2023-03-14T14:27:38;99475.00;;;7.10
12918;BMP180;6526;54.312;13.092;2023-03-14T14:30:21;99483.00;;;7.10
12918;BMP180;6526;54.312;13.092;2023-03-14T14:32:51;99494.00;;;7.20
12918;BMP180;6526;54.312;13.092;2023-03-14T14:35:34;99497.00;;;7.20
12918;BMP180;6526;54.312;13.092;2023-03-14T14:38:01;99502.00;;;7.20
12918;BMP180;6526;54.312;13.092;2023-03-14T14:40:30;99505.00;;;7.30
12918;BMP180;6526;54.312;13.092;2023-03-14T14:43:04;99511.00;;;7.40
12918;BMP180;6526;54.312;13.092;2023-03-14T14:45:30;99521.00;;;7.40
12918;BMP180;6526;54.312;13.092;2023-03-14T14:48:06;99536.00;;;7.50
12918;BMP180;6526;54.312;13.092;2023-03-14T14:50:37;99544.00;;;7.40
12918;BMP180;6526;54.312;13.092;2023-03-14T14:55:55;99547.00;;;7.20
12918;BMP180;6526;54.312;13.092;2023-03-14T14:58:30;99542.00;;;7.20
12918;BMP180;6526;54.312;13.092;2023-03-14T15:01:18;99531.00;;;7.20
12918;BMP180;6526;54.312;13.092;2023-03-14T15:03:47;99549.00;;;7.20
12918;BMP180;6526;54.312;13.092;2023-03-14T15:06:15;99555.00;;;7.30
12918;BMP180;6526;54.312;13.092;2023-03-14T15:08:44;99556.00;;;7.30
12918;BMP180;6526;54.312;13.092;2023-03-14T15:11:17;99550.00;;;7.40
12918;BMP180;6526;54.312;13.092;2023-03-14T15:13:44;99555.00;;;7.40
12918;BMP180;6526;54.312;13.092;2023-03-14T15:16:15;99568.00;;;7.40
12918;BMP180;6526;54.312;13.092;2023-03-14T15:18:42;99540.00;;;7.40
12918;BMP180;6526;54.312;13.092;2023-03-14T15:21:12;99562.00;;;7.40
12918;BMP180;6526;54.312;13.092;2023-03-14T15:23:38;99591.00;;;7.50
12918;BMP180;6526;54.312;13.092;2023-03-14T15:26:16;99589.00;;;7.50
12918;BMP180;6526;54.312;13.092;2023-03-14T15:28:43;99595.00;;;7.60